This is the latest recevied weather packets stored in our database for station/object AD7ZD. If no packets are shown the sender has not sent any weather packets the latest 10 day(s).
| Time | Temp. | Humidity | Pressure | Rain* | Wind** | Luminosity | Snow |
|---|---|---|---|---|---|---|---|
| 1778088564 | 17.78° C | 48% | 1018.5 hPa | 0 mm | - | 732 W/m² | - |
| 1778088261 | 18.33° C | 48% | 1018.4 hPa | 0 mm | - | 800 W/m² | - |
| 1778087957 | 17.78° C | 50% | 1018.3 hPa | 0 mm | - | 840 W/m² | - |
| 1778087655 | 18.33° C | 48% | 1018.3 hPa | 0 mm | - | 843 W/m² | - |
| 1778087352 | 18.33° C | 48% | 1018.5 hPa | 0 mm | - | 791 W/m² | - |
| 1778087047 | 18.89° C | 47% | 1018.4 hPa | 0 mm | - | 714 W/m² | - |
| 1778086742 | 17.78° C | 48% | 1018.3 hPa | 0 mm | - | 689 W/m² | - |
| 1778086439 | 18.33° C | 47% | 1018.4 hPa | 0 mm | - | 745 W/m² | - |
| 1778086135 | 17.78° C | 47% | 1018.2 hPa | 0 mm | - | 757 W/m² | - |
| 1778085832 | 18.33° C | 45% | 1018.5 hPa | 0 mm | - | 738 W/m² | - |
| 1778085530 | 17.78° C | 47% | 1018.3 hPa | 0 mm | - | 684 W/m² | - |
| 1778085224 | 18.33° C | 45% | 1018.4 hPa | 0 mm | - | 607 W/m² | - |
| 1778084919 | 18.33° C | 47% | 1018.2 hPa | 0 mm | - | 598 W/m² | - |
| 1778084618 | 17.78° C | 47% | 1018 hPa | 0 mm | - | 546 W/m² | - |
| 1778084315 | 18.33° C | 46% | 1018.2 hPa | 0 mm | - | 587 W/m² | - |
| 1778084012 | 17.22° C | 48% | 1017.8 hPa | 0 mm | - | 500 W/m² | - |
| 1778083710 | 17.22° C | 48% | 1018.2 hPa | 0 mm | - | 470 W/m² | - |
| 1778083406 | 17.22° C | 48% | 1018 hPa | 0 mm | - | 407 W/m² | - |
| 1778083105 | 16.67° C | 50% | 1017.9 hPa | 0 mm | - | 426 W/m² | - |
| 1778082801 | 16.11° C | 52% | 1017.9 hPa | 0 mm | - | 347 W/m² | - |
| 1778081674 | 15° C | 58% | 1017.5 hPa | 0 mm | - | 279 W/m² | - |
| 1778081371 | 15° C | 59% | 1017.7 hPa | 0 mm | - | 284 W/m² | - |
| 1778081068 | 14.44° C | 60% | 1017.5 hPa | 0 mm | - | 278 W/m² | - |
| 1778080766 | 14.44° C | 60% | 1017.5 hPa | 0 mm | - | 281 W/m² | - |
| 1778080463 | 13.89° C | 60% | 1017.7 hPa | 0 mm | - | 267 W/m² | - |
* Rain latest hour (hover to see other rain measurements)
** Current wind speed in m/s (hover to see current wind gust speed)